createdAt,value
2017-06-27T00:01:50.750Z,59.20
2017-06-27T00:04:18.309Z,59.70
2017-06-27T00:06:45.838Z,59.70
2017-06-27T00:09:14.172Z,60.00
2017-06-27T00:11:41.704Z,60.00
2017-06-27T00:14:09.264Z,59.80
2017-06-27T00:16:36.795Z,59.40
2017-06-27T00:19:04.373Z,59.80
2017-06-27T00:21:31.906Z,59.20
2017-06-27T00:24:00.264Z,57.80
2017-06-27T00:26:27.842Z,57.70
2017-06-27T00:28:56.151Z,57.50
2017-06-27T00:31:23.714Z,57.50
2017-06-27T00:33:51.254Z,57.70
2017-06-27T00:36:18.823Z,58.00
2017-06-27T00:38:46.353Z,57.60
2017-06-27T00:41:14.734Z,58.10
2017-06-27T00:43:43.032Z,56.40
2017-06-27T00:46:10.561Z,56.40
2017-06-27T00:48:38.901Z,55.60
2017-06-27T00:51:06.435Z,55.50
2017-06-27T00:53:34.002Z,56.10
2017-06-27T00:56:01.537Z,55.80
2017-06-27T00:58:29.098Z,58.40
2017-06-27T01:00:56.629Z,59.10
2017-06-27T01:03:24.972Z,58.10
2017-06-27T01:05:52.514Z,58.10
2017-06-27T01:08:20.058Z,58.70
2017-06-27T01:10:47.621Z,57.10
2017-06-27T01:13:15.162Z,59.70
2017-06-27T01:15:42.729Z,60.30
2017-06-27T01:18:10.262Z,60.40
2017-06-27T01:20:37.842Z,59.80
2017-06-27T01:23:05.406Z,59.30
2017-06-27T01:25:32.946Z,59.00
2017-06-27T01:28:00.513Z,58.10
2017-06-27T01:30:28.054Z,57.80
2017-06-27T01:32:56.402Z,59.90
2017-06-27T01:35:23.930Z,59.90
2017-06-27T01:37:51.479Z,59.60
2017-06-27T01:40:19.062Z,61.20
2017-06-27T01:42:46.598Z,61.10
2017-06-27T01:45:14.131Z,59.00
2017-06-27T01:47:41.702Z,58.70
2017-06-27T01:50:09.265Z,59.00
2017-06-27T01:52:36.835Z,59.00
2017-06-27T01:55:04.377Z,59.80
2017-06-27T01:57:32.267Z,60.30
2017-06-27T01:59:59.829Z,60.80
2017-06-27T02:02:27.358Z,61.40
2017-06-27T02:04:55.097Z,62.20
2017-06-27T02:07:22.641Z,62.10
2017-06-27T02:09:50.211Z,61.20
2017-06-27T02:12:18.516Z,61.10
2017-06-27T02:14:46.078Z,61.00
2017-06-27T02:17:13.610Z,60.30
2017-06-27T02:19:41.958Z,60.60
2017-06-27T02:22:09.491Z,60.60
2017-06-27T02:24:37.031Z,59.60
2017-06-27T02:27:04.598Z,59.00
2017-06-27T02:29:32.138Z,62.00
2017-06-27T02:31:59.709Z,61.90
2017-06-27T02:34:27.242Z,61.00
2017-06-27T02:36:54.814Z,60.20
2017-06-27T02:39:22.346Z,60.30
2017-06-27T02:41:50.679Z,59.80
2017-06-27T02:44:18.217Z,59.60
2017-06-27T02:46:45.793Z,59.40
2017-06-27T02:49:13.341Z,58.60
2017-06-27T02:51:40.913Z,58.00
2017-06-27T02:54:08.464Z,58.80
2017-06-27T02:56:35.996Z,60.00
2017-06-27T02:59:03.569Z,62.70
2017-06-27T03:01:31.106Z,59.70
2017-06-27T03:03:59.441Z,58.50
2017-06-27T03:06:26.975Z,59.00
2017-06-27T03:08:54.537Z,59.00
2017-06-27T03:11:22.077Z,59.00
2017-06-27T03:13:49.636Z,58.50
2017-06-27T03:16:17.175Z,57.90
2017-06-27T03:18:45.509Z,58.30
2017-06-27T03:21:13.038Z,58.30
2017-06-27T03:23:40.573Z,58.30
2017-06-27T03:26:08.152Z,58.30
2017-06-27T03:28:35.689Z,58.60
2017-06-27T03:31:03.225Z,60.30
2017-06-27T03:33:30.790Z,60.20
2017-06-27T03:35:59.088Z,58.60
2017-06-27T03:38:26.664Z,58.50
2017-06-27T03:40:54.226Z,58.90
2017-06-27T03:43:21.757Z,60.40
2017-06-27T03:45:50.121Z,60.20
2017-06-27T03:48:18.425Z,59.10
2017-06-27T03:50:45.988Z,59.10
2017-06-27T03:53:13.521Z,58.30
2017-06-27T03:55:41.846Z,59.80
2017-06-27T03:58:09.376Z,59.80
2017-06-27T04:00:36.934Z,59.30
2017-06-27T04:03:04.492Z,58.50
2017-06-27T04:05:32.765Z,58.50
2017-06-27T04:08:00.329Z,58.80
2017-06-27T04:10:27.875Z,58.60
2017-06-27T04:12:55.441Z,58.50
2017-06-27T04:15:22.977Z,58.30
2017-06-27T04:17:51.303Z,59.10
2017-06-27T04:20:18.881Z,59.10
2017-06-27T04:22:46.413Z,60.10
2017-06-27T04:25:13.954Z,60.20
2017-06-27T04:27:41.526Z,61.70
2017-06-27T04:30:09.062Z,60.80
2017-06-27T04:32:36.635Z,60.00
2017-06-27T04:35:04.170Z,60.20
2017-06-27T04:37:33.079Z,60.60
2017-06-27T04:40:00.613Z,60.50
2017-06-27T04:42:29.635Z,62.40
2017-06-27T04:44:57.618Z,62.40
2017-06-27T04:47:25.160Z,63.10
2017-06-27T04:49:52.721Z,62.00
2017-06-27T04:52:20.258Z,64.60
2017-06-27T04:54:48.593Z,63.30
2017-06-27T04:57:16.127Z,63.30
2017-06-27T04:59:43.734Z,61.30
2017-06-27T05:02:12.045Z,61.60
2017-06-27T05:04:39.615Z,61.60
2017-06-27T05:07:07.156Z,60.90
2017-06-27T05:09:34.741Z,60.90
2017-06-27T05:12:02.284Z,60.50
2017-06-27T05:14:29.820Z,60.20
2017-06-27T05:16:59.051Z,60.90
2017-06-27T05:19:26.593Z,60.90
2017-06-27T05:21:54.586Z,60.50
2017-06-27T05:24:22.132Z,59.40
2017-06-27T05:26:49.706Z,59.70
2017-06-27T05:29:17.303Z,59.70
2017-06-27T05:31:45.321Z,59.40
2017-06-27T05:34:12.855Z,59.40
2017-06-27T05:36:41.172Z,58.90
2017-06-27T05:39:08.711Z,59.10
2017-06-27T05:41:36.280Z,58.80
2017-06-27T05:44:03.810Z,59.00
2017-06-27T05:46:31.348Z,58.20
2017-06-27T05:48:59.681Z,58.20
2017-06-27T05:51:27.221Z,58.10
2017-06-27T05:53:54.786Z,57.80
2017-06-27T05:56:22.323Z,57.80
2017-06-27T05:58:49.912Z,57.40
2017-06-27T06:01:17.452Z,58.40
2017-06-27T06:03:44.989Z,59.10
2017-06-27T06:06:12.553Z,58.20
2017-06-27T06:08:40.129Z,58.00
2017-06-27T06:11:07.665Z,58.10
2017-06-27T06:13:35.247Z,57.80
2017-06-27T06:16:02.784Z,58.40
2017-06-27T06:18:30.321Z,57.70
2017-06-27T06:20:58.673Z,57.40
2017-06-27T06:23:26.210Z,57.30
2017-06-27T06:25:53.741Z,57.60
2017-06-27T06:28:21.323Z,57.60
2017-06-27T06:30:49.983Z,57.80
2017-06-27T06:33:17.528Z,57.60
2017-06-27T06:35:45.090Z,57.50
2017-06-27T06:38:12.631Z,57.70
2017-06-27T06:40:41.009Z,58.60
2017-06-27T06:43:08.594Z,58.50
2017-06-27T06:45:36.136Z,59.40
2017-06-27T06:48:04.473Z,58.30
2017-06-27T06:50:32.001Z,58.30
2017-06-27T06:52:59.569Z,58.70
2017-06-27T06:55:27.105Z,59.10
2017-06-27T06:57:54.683Z,59.20
2017-06-27T07:00:22.274Z,59.70
2017-06-27T07:02:49.861Z,59.90
2017-06-27T07:05:18.212Z,59.60
2017-06-27T07:07:45.757Z,59.60
2017-06-27T07:10:13.334Z,59.50
2017-06-27T07:12:40.869Z,58.60
2017-06-27T07:15:08.401Z,58.80
2017-06-27T07:17:35.981Z,59.40
2017-06-27T07:20:03.525Z,58.80
2017-06-27T07:22:31.835Z,59.10
2017-06-27T07:24:59.372Z,59.30
2017-06-27T07:27:26.942Z,60.00
2017-06-27T07:29:54.482Z,60.30
2017-06-27T07:32:22.050Z,60.90
2017-06-27T07:34:49.590Z,61.30
2017-06-27T07:37:17.167Z,60.70
2017-06-27T07:39:44.710Z,60.60
2017-06-27T07:42:12.246Z,60.40
2017-06-27T07:44:39.823Z,60.30
2017-06-27T07:47:07.361Z,60.50
2017-06-27T07:49:36.208Z,59.90
2017-06-27T07:52:03.782Z,60.40
2017-06-27T07:54:31.328Z,60.60
2017-06-27T07:57:00.180Z,60.80
2017-06-27T07:59:30.684Z,60.40
2017-06-27T08:02:03.246Z,61.50
2017-06-27T08:04:31.556Z,62.80
2017-06-27T08:06:59.102Z,62.80
2017-06-27T08:09:26.682Z,62.50
2017-06-27T08:11:54.214Z,62.00
2017-06-27T08:14:21.754Z,61.70
2017-06-27T08:16:50.085Z,64.20
2017-06-27T08:19:17.625Z,64.10
2017-06-27T08:21:45.218Z,64.80
2017-06-27T08:24:12.759Z,64.90
2017-06-27T08:26:40.289Z,65.80
2017-06-27T08:29:08.540Z,64.10
2017-06-27T08:31:37.350Z,62.70
2017-06-27T08:34:04.914Z,61.80
2017-06-27T08:36:32.469Z,63.60
2017-06-27T08:39:00.066Z,64.40
2017-06-27T08:41:27.601Z,64.60
2017-06-27T08:43:55.186Z,64.20
2017-06-27T08:46:22.724Z,64.10
2017-06-27T08:48:50.262Z,64.40
2017-06-27T08:51:17.857Z,63.20
2017-06-27T08:53:45.403Z,64.00
2017-06-27T08:56:12.960Z,62.90
2017-06-27T08:58:40.533Z,63.40
2017-06-27T09:01:08.074Z,64.70
2017-06-27T09:03:35.650Z,64.10
2017-06-27T09:06:03.185Z,63.80
2017-06-27T09:08:30.717Z,64.20
2017-06-27T09:10:59.907Z,65.30
2017-06-27T09:13:31.101Z,64.40
2017-06-27T09:16:01.561Z,64.40
2017-06-27T09:18:29.495Z,64.50
2017-06-27T09:20:57.037Z,66.40
2017-06-27T09:23:24.614Z,66.70
2017-06-27T09:25:52.196Z,67.40
2017-06-27T09:28:19.749Z,66.40
2017-06-27T09:30:47.289Z,64.30
2017-06-27T09:33:14.861Z,66.70
2017-06-27T09:35:42.414Z,67.60
2017-06-27T09:38:09.999Z,68.30
2017-06-27T09:40:37.566Z,67.50
2017-06-27T09:43:05.107Z,66.10
2017-06-27T09:45:32.667Z,65.60
2017-06-27T09:48:00.210Z,66.60
2017-06-27T09:50:27.776Z,67.30
2017-06-27T09:52:55.324Z,67.40
2017-06-27T09:55:22.898Z,67.30
2017-06-27T09:57:50.442Z,67.10
2017-06-27T10:00:18.055Z,67.90
2017-06-27T10:02:45.586Z,67.50
2017-06-27T10:05:16.005Z,69.00
2017-06-27T10:07:44.782Z,68.80
2017-06-27T10:10:12.328Z,68.50
2017-06-27T10:12:39.915Z,67.50
2017-06-27T10:15:07.483Z,69.20
2017-06-27T10:17:35.028Z,67.70
2017-06-27T10:20:02.619Z,67.00
2017-06-27T10:22:30.925Z,67.00
2017-06-27T10:24:58.465Z,67.00
2017-06-27T10:27:26.047Z,69.00
2017-06-27T10:29:53.621Z,67.70
2017-06-27T10:32:21.195Z,69.20
2017-06-27T10:34:48.762Z,69.30
2017-06-27T10:37:17.175Z,67.10
2017-06-27T10:39:44.791Z,67.10
2017-06-27T10:42:12.336Z,66.90
2017-06-27T10:44:40.641Z,67.70
2017-06-27T10:47:08.185Z,67.10
2017-06-27T10:49:35.754Z,67.80
2017-06-27T10:52:03.296Z,66.70
2017-06-27T10:54:31.456Z,67.50
2017-06-27T10:56:58.999Z,67.50
2017-06-27T10:59:26.572Z,67.70
2017-06-27T11:01:54.116Z,66.40
2017-06-27T11:04:21.675Z,66.40
2017-06-27T11:06:49.210Z,67.70
2017-06-27T11:09:16.789Z,69.40
2017-06-27T11:11:44.329Z,69.10
2017-06-27T11:14:11.860Z,70.20
2017-06-27T11:16:39.428Z,71.20
2017-06-27T11:19:07.742Z,72.10
2017-06-27T11:21:35.334Z,72.10
2017-06-27T11:24:02.877Z,71.70
2017-06-27T11:26:30.405Z,72.50
2017-06-27T11:28:57.973Z,70.10
2017-06-27T11:31:26.510Z,70.30
2017-06-27T11:33:55.925Z,72.50
2017-06-27T11:36:24.225Z,74.00
2017-06-27T11:38:51.756Z,74.00
2017-06-27T11:41:20.149Z,75.50
2017-06-27T11:43:47.690Z,75.50
2017-06-27T11:46:15.991Z,77.10
2017-06-27T11:48:43.563Z,76.40
2017-06-27T11:51:11.097Z,75.30
2017-06-27T11:53:38.721Z,75.70
2017-06-27T11:56:06.255Z,75.70
2017-06-27T11:58:33.790Z,75.50
2017-06-27T12:01:13.150Z,75.60
2017-06-27T12:03:52.834Z,78.10
2017-06-27T12:06:20.417Z,77.40
2017-06-27T12:08:57.828Z,76.90
2017-06-27T12:11:25.422Z,75.70
2017-06-27T12:13:53.010Z,76.00
2017-06-27T12:16:21.322Z,76.30
2017-06-27T12:18:48.870Z,76.30
2017-06-27T12:21:16.461Z,76.40
2017-06-27T12:23:48.058Z,77.70
2017-06-27T12:26:17.137Z,78.10
2017-06-27T12:28:44.694Z,78.10
2017-06-27T12:31:12.233Z,77.30
2017-06-27T12:33:39.821Z,77.60
2017-06-27T12:36:08.134Z,77.00
2017-06-27T12:38:35.670Z,77.00
2017-06-27T12:41:04.039Z,78.00
2017-06-27T12:43:32.342Z,77.70
2017-06-27T12:45:59.885Z,77.60
2017-06-27T12:48:28.220Z,77.20
2017-06-27T12:50:55.750Z,77.20
2017-06-27T12:53:23.282Z,77.20
2017-06-27T12:55:50.889Z,78.00
2017-06-27T12:58:18.426Z,77.50
2017-06-27T13:00:45.962Z,77.40
2017-06-27T13:03:13.644Z,78.00
2017-06-27T13:05:42.029Z,77.80
2017-06-27T13:08:09.563Z,77.80
2017-06-27T13:10:37.785Z,78.90
2017-06-27T13:13:05.326Z,79.00
2017-06-27T13:15:32.862Z,78.10
2017-06-27T13:18:00.443Z,78.60
2017-06-27T13:20:28.017Z,77.80
2017-06-27T13:22:55.632Z,78.10
2017-06-27T13:25:23.181Z,78.10
2017-06-27T13:27:50.758Z,77.40
2017-06-27T13:30:18.304Z,76.50
2017-06-27T13:32:45.882Z,76.20
2017-06-27T13:35:13.431Z,76.10
2017-06-27T13:37:41.018Z,75.90
2017-06-27T13:40:08.563Z,76.30
2017-06-27T13:42:36.106Z,75.60
2017-06-27T13:45:03.682Z,75.60
2017-06-27T13:47:31.223Z,75.30
2017-06-27T13:49:58.794Z,75.40
2017-06-27T13:52:26.782Z,75.00
2017-06-27T13:54:54.324Z,74.50
2017-06-27T13:57:21.873Z,74.60
2017-06-27T13:59:49.462Z,74.90
2017-06-27T14:02:17.009Z,74.60
2017-06-27T14:04:44.554Z,74.90
2017-06-27T14:07:12.156Z,75.20
2017-06-27T14:09:39.713Z,75.10
2017-06-27T14:12:07.263Z,74.60
2017-06-27T14:14:34.849Z,74.00
2017-06-27T14:17:03.174Z,73.50
2017-06-27T14:19:30.722Z,73.50
2017-06-27T14:21:58.308Z,73.80
2017-06-27T14:24:25.848Z,73.90
2017-06-27T14:26:53.400Z,74.10
2017-06-27T14:29:21.460Z,74.90
2017-06-27T14:31:49.638Z,74.50
2017-06-27T14:34:17.621Z,75.10
2017-06-27T14:36:45.590Z,74.60
2017-06-27T14:39:15.061Z,73.60
2017-06-27T14:41:42.606Z,74.50
2017-06-27T14:44:10.950Z,71.10
2017-06-27T14:46:38.486Z,71.00
2017-06-27T14:49:06.026Z,70.90
2017-06-27T14:51:33.730Z,70.90
2017-06-27T14:54:01.274Z,70.30
2017-06-27T14:56:28.806Z,68.90
2017-06-27T14:58:56.423Z,67.90
2017-06-27T15:01:24.227Z,67.60
2017-06-27T15:03:54.075Z,68.40
2017-06-27T15:06:22.068Z,67.70
2017-06-27T15:08:51.036Z,68.80
2017-06-27T15:11:21.956Z,68.40
2017-06-27T15:13:51.385Z,68.00
2017-06-27T15:16:23.527Z,68.10
2017-06-27T15:18:53.379Z,67.90
2017-06-27T15:21:23.148Z,68.20
2017-06-27T15:23:55.863Z,66.90
2017-06-27T15:31:44.517Z,67.00
2017-06-27T15:34:16.264Z,68.30
2017-06-27T15:36:44.750Z,67.60
2017-06-27T15:39:13.718Z,67.40
2017-06-27T15:41:42.051Z,67.20
2017-06-27T15:44:10.334Z,67.10
2017-06-27T15:46:37.873Z,66.90
2017-06-27T15:49:05.498Z,67.40
2017-06-27T15:51:33.828Z,67.30
2017-06-27T15:54:02.777Z,67.60
2017-06-27T15:56:31.802Z,67.30
2017-06-27T15:59:00.121Z,67.00
2017-06-27T16:01:28.318Z,68.20
2017-06-27T16:03:56.093Z,67.90
2017-06-27T16:06:23.691Z,67.70
2017-06-27T16:08:52.126Z,67.50
2017-06-27T16:11:19.714Z,68.30
2017-06-27T16:13:47.262Z,67.10
2017-06-27T16:16:15.057Z,67.10
2017-06-27T16:18:43.365Z,66.10
2017-06-27T16:21:10.933Z,66.00
2017-06-27T16:23:38.472Z,66.20
2017-06-27T16:26:06.037Z,65.90
2017-06-27T16:28:33.608Z,66.10
2017-06-27T16:31:01.132Z,66.00
2017-06-27T16:33:29.473Z,65.30
2017-06-27T16:35:57.001Z,65.40
2017-06-27T16:38:24.597Z,65.80
2017-06-27T16:40:52.890Z,65.70
2017-06-27T16:43:21.005Z,65.50
2017-06-27T16:45:48.590Z,65.30
2017-06-27T16:48:16.131Z,65.40
2017-06-27T16:50:43.703Z,65.60
2017-06-27T16:53:11.238Z,65.50
2017-06-27T16:55:38.822Z,66.40
2017-06-27T16:58:06.357Z,66.40
2017-06-27T17:00:33.918Z,66.30
2017-06-27T17:03:01.489Z,66.20
2017-06-27T17:05:29.027Z,66.50
2017-06-27T17:07:56.605Z,66.80
2017-06-27T17:10:24.145Z,67.00
2017-06-27T17:12:51.711Z,67.10
2017-06-27T17:15:19.251Z,67.10
2017-06-27T17:17:46.812Z,67.40
2017-06-27T17:20:14.348Z,67.20
2017-06-27T17:22:41.942Z,66.90
2017-06-27T17:25:09.478Z,66.90
2017-06-27T17:27:37.773Z,67.10
2017-06-27T17:30:05.345Z,67.10
2017-06-27T17:32:32.879Z,66.50
2017-06-27T17:35:00.509Z,67.60
2017-06-27T17:37:28.989Z,66.90
2017-06-27T17:39:56.576Z,66.80
2017-06-27T17:42:24.116Z,67.20
2017-06-27T17:44:52.458Z,67.50
2017-06-27T17:47:19.995Z,67.30
2017-06-27T17:49:49.314Z,67.90
2017-06-27T17:52:16.894Z,67.60
2017-06-27T17:54:44.435Z,67.40
2017-06-27T17:57:14.998Z,67.40
2017-06-27T17:59:43.312Z,68.40
2017-06-27T18:02:10.894Z,67.90
2017-06-27T18:04:38.446Z,67.60
2017-06-27T18:07:05.990Z,67.30
2017-06-27T18:09:33.873Z,68.00
2017-06-27T18:12:01.443Z,67.40
2017-06-27T18:14:29.012Z,67.00
2017-06-27T18:16:56.562Z,67.50
2017-06-27T18:19:24.099Z,67.90
2017-06-27T18:21:51.694Z,67.90
2017-06-27T18:24:19.244Z,68.20
2017-06-27T18:26:46.818Z,68.10
2017-06-27T18:29:14.388Z,68.70
2017-06-27T18:31:42.743Z,68.80
2017-06-27T18:34:10.392Z,68.70
2017-06-27T18:36:39.163Z,68.50
2017-06-27T18:39:07.566Z,68.20
2017-06-27T18:41:39.572Z,68.20
2017-06-27T18:44:08.543Z,68.00
2017-06-27T18:46:36.861Z,68.80
2017-06-27T18:49:04.453Z,68.70
2017-06-27T18:51:31.997Z,68.80
2017-06-27T18:53:59.573Z,68.90
2017-06-27T18:56:27.117Z,68.70
2017-06-27T18:58:54.681Z,69.40
2017-06-27T19:01:22.784Z,69.90
2017-06-27T19:03:52.643Z,70.30
2017-06-27T19:06:20.269Z,70.30
2017-06-27T19:08:48.609Z,70.50
2017-06-27T19:11:16.149Z,70.40
2017-06-27T19:13:43.781Z,70.20
2017-06-27T19:16:11.321Z,70.20
2017-06-27T19:18:39.676Z,70.80
2017-06-27T19:21:07.249Z,70.70
2017-06-27T19:23:35.590Z,70.90
2017-06-27T19:26:03.146Z,70.90
2017-06-27T19:28:30.726Z,71.20
2017-06-27T19:30:58.330Z,71.30
2017-06-27T19:33:25.862Z,72.10
2017-06-27T19:35:54.252Z,72.10
2017-06-27T19:38:21.834Z,72.10
2017-06-27T19:40:49.427Z,71.80
2017-06-27T19:43:16.994Z,71.90
2017-06-27T19:45:44.853Z,72.20
2017-06-27T19:48:15.656Z,72.20
2017-06-27T19:50:45.576Z,72.10
2017-06-27T19:53:13.259Z,72.80
2017-06-27T19:55:40.886Z,72.60
2017-06-27T19:58:08.474Z,73.00
2017-06-27T20:00:36.017Z,72.80
2017-06-27T20:03:03.646Z,73.00
2017-06-27T20:05:32.095Z,72.90
2017-06-27T20:08:00.458Z,72.10
2017-06-27T20:10:28.771Z,72.10
2017-06-27T20:12:56.349Z,71.90
2017-06-27T20:15:24.849Z,71.70
2017-06-27T20:17:54.743Z,71.60
2017-06-27T20:20:23.052Z,72.10
2017-06-27T20:22:50.664Z,71.70
2017-06-27T20:25:19.080Z,71.40
2017-06-27T20:27:46.616Z,71.40
2017-06-27T20:30:17.618Z,71.30
2017-06-27T20:32:45.238Z,71.20
2017-06-27T20:35:14.092Z,71.50
2017-06-27T20:37:41.634Z,71.60
2017-06-27T20:40:09.997Z,72.20
2017-06-27T20:42:37.623Z,72.20
2017-06-27T20:45:05.152Z,72.10
2017-06-27T20:47:32.722Z,71.80
2017-06-27T20:50:01.131Z,72.10
2017-06-27T20:52:28.680Z,72.10
2017-06-27T20:54:56.843Z,72.20
2017-06-27T20:57:24.406Z,72.30
2017-06-27T20:59:52.099Z,72.40
2017-06-27T21:02:19.637Z,72.50
2017-06-27T21:04:47.218Z,72.40
2017-06-27T21:07:14.765Z,72.50
2017-06-27T21:09:42.294Z,72.50
2017-06-27T21:12:09.860Z,72.80
2017-06-27T21:14:37.397Z,72.80
2017-06-27T21:17:04.992Z,72.60
2017-06-27T21:19:33.077Z,72.60
2017-06-27T21:22:00.646Z,72.70
2017-06-27T21:24:28.185Z,72.50
2017-06-27T21:26:56.569Z,72.90
2017-06-27T21:29:24.104Z,73.60
2017-06-27T21:31:51.637Z,74.50
2017-06-27T21:34:20.961Z,74.50
2017-06-27T21:36:48.489Z,74.40
2017-06-27T21:39:16.177Z,74.20
2017-06-27T21:41:43.755Z,75.00
2017-06-27T21:44:11.769Z,75.30
2017-06-27T21:46:40.094Z,76.10
2017-06-27T21:49:07.634Z,76.10
2017-06-27T21:51:35.334Z,77.00
2017-06-27T21:54:03.042Z,76.40
2017-06-27T21:56:30.574Z,76.60
2017-06-27T21:58:59.754Z,77.40
2017-06-27T22:01:27.289Z,77.00
2017-06-27T22:03:55.667Z,77.10
2017-06-27T22:06:23.196Z,77.30
2017-06-27T22:08:50.767Z,77.20
2017-06-27T22:11:19.090Z,77.40
2017-06-27T22:13:46.674Z,77.10
2017-06-27T22:16:19.326Z,77.20
2017-06-27T22:18:47.820Z,77.00
2017-06-27T22:21:20.245Z,77.10
2017-06-27T22:23:47.821Z,77.10
2017-06-27T22:26:15.849Z,77.40
2017-06-27T22:28:46.066Z,76.90
2017-06-27T22:31:13.636Z,76.90
2017-06-27T22:33:41.165Z,77.00
2017-06-27T22:36:08.729Z,77.40
2017-06-27T22:38:37.027Z,77.70
2017-06-27T22:41:04.624Z,77.60
2017-06-27T22:43:32.198Z,77.70
2017-06-27T22:46:02.417Z,77.90
2017-06-27T22:48:29.981Z,78.00
2017-06-27T22:50:57.518Z,77.80
2017-06-27T22:53:25.094Z,77.90
2017-06-27T22:55:54.055Z,77.90
2017-06-27T22:58:21.638Z,78.00
2017-06-27T23:00:49.177Z,78.20
2017-06-27T23:03:16.752Z,78.30
2017-06-27T23:05:44.281Z,78.10
2017-06-27T23:08:11.805Z,78.20
2017-06-27T23:10:39.376Z,78.40
2017-06-27T23:13:06.913Z,78.10
2017-06-27T23:15:34.480Z,78.80
2017-06-27T23:18:02.013Z,78.80
2017-06-27T23:20:29.585Z,79.00
2017-06-27T23:22:57.886Z,79.20
2017-06-27T23:25:25.473Z,79.20
2017-06-27T23:27:53.013Z,79.40
2017-06-27T23:30:20.549Z,79.50
2017-06-27T23:32:48.878Z,79.40
2017-06-27T23:35:16.408Z,79.40
2017-06-27T23:37:43.968Z,79.30
2017-06-27T23:40:11.517Z,78.70
2017-06-27T23:42:39.086Z,78.70
2017-06-27T23:45:06.654Z,79.30
2017-06-27T23:47:34.221Z,79.50
2017-06-27T23:50:01.749Z,79.50
2017-06-27T23:52:29.289Z,79.40
2017-06-27T23:54:56.862Z,79.10
2017-06-27T23:57:24.426Z,79.40
2017-06-27T23:59:51.987Z,80.10
